Time;durP1;ratioP1;P1;durP2;ratioP2;P2;SDS_P1;SDS_P2;PMS_P1;PMS_P2;Temp;Humidity;BMP_temperature;BMP_pressure;BME280_temperature;BME280_humidity;BME280_pressure;Samples;Min_cycle;Max_cycle;Signal;HPM_P1;HPM_P2
2021/06/15 00:00:25;;;;;;;3.25;0.82;;;21.80;64.30;;;;;;6289844;22;20069;-71
2021/06/15 00:02:51;;;;;;;2.50;0.82;;;21.70;64.20;;;;;;6290517;22;20016;-72
2021/06/15 00:05:18;;;;;;;2.63;0.85;;;21.70;64.20;;;;;;6289436;22;20020;-71
2021/06/15 00:07:47;;;;;;;3.80;1.17;;;21.70;64.20;;;;;;6279740;22;20015;-71
2021/06/15 00:10:19;;;;;;;1.90;0.60;;;21.70;64.10;;;;;;6279865;22;20051;-71
2021/06/15 00:12:46;;;;;;;3.38;0.90;;;21.70;64.10;;;;;;6283534;22;20012;-71
2021/06/15 00:15:13;;;;;;;3.42;0.95;;;21.70;64.10;;;;;;6289599;22;20491;-71
2021/06/15 00:17:40;;;;;;;3.33;0.93;;;21.70;64.10;;;;;;6279683;22;20432;-71
2021/06/15 00:20:07;;;;;;;2.72;0.93;;;21.70;64.20;;;;;;6279327;22;20098;-72
2021/06/15 00:22:33;;;;;;;3.83;1.00;;;21.70;64.10;;;;;;6289806;22;20296;-71
2021/06/15 00:25:12;;;;;;;2.90;0.95;;;21.70;64.10;;;;;;6279197;22;20024;-72
2021/06/15 00:27:38;;;;;;;3.08;0.70;;;21.70;64.00;;;;;;6289587;22;20428;-71
2021/06/15 00:30:17;;;;;;;1.30;0.70;;;21.60;64.10;;;;;;6279421;22;20020;-72
2021/06/15 00:32:50;;;;;;;2.22;0.85;;;21.70;64.10;;;;;;6289192;22;20012;-72
2021/06/15 00:35:29;;;;;;;2.25;0.68;;;21.60;64.00;;;;;;6289572;22;20020;-71
2021/06/15 00:37:55;;;;;;;2.50;0.65;;;21.60;64.00;;;;;;6290021;22;20080;-71
2021/06/15 00:40:23;;;;;;;2.95;0.90;;;21.60;64.00;;;;;;6290140;22;20054;-72
2021/06/15 00:42:49;;;;;;;3.80;0.85;;;21.60;64.00;;;;;;6290144;22;20054;-71
2021/06/15 00:45:17;;;;;;;1.65;0.57;;;21.60;64.00;;;;;;6289793;22;20279;-71
2021/06/15 00:47:46;;;;;;;2.50;0.82;;;21.60;64.00;;;;;;6262707;22;20085;-72
2021/06/15 00:50:13;;;;;;;3.13;0.65;;;21.60;64.00;;;;;;6289735;22;20011;-71
2021/06/15 00:52:39;;;;;;;4.40;0.73;;;21.60;64.00;;;;;;6289394;22;20071;-71
2021/06/15 00:55:05;;;;;;;2.08;0.63;;;21.60;64.00;;;;;;6289908;22;20089;-72
2021/06/15 00:57:31;;;;;;;2.45;0.90;;;21.60;64.00;;;;;;6289369;22;20012;-71
2021/06/15 00:59:58;;;;;;;2.55;0.70;;;21.60;64.00;;;;;;6289594;22;20012;-71
2021/06/15 01:02:25;;;;;;;3.00;0.70;;;21.60;63.90;;;;;;6289258;22;20087;-71
2021/06/15 01:04:51;;;;;;;1.92;0.60;;;21.50;63.90;;;;;;6289340;22;20030;-72
2021/06/15 01:07:42;;;;;;;3.88;0.82;;;21.60;63.90;;;;;;6289921;22;20011;-71
2021/06/15 01:10:19;;;;;;;2.17;0.50;;;21.60;63.80;;;;;;6289232;22;20091;-71
2021/06/15 01:13:29;;;;;;;3.15;0.60;;;21.50;63.80;;;;;;6283830;22;20023;-71
2021/06/15 01:16:15;;;;;;;2.63;0.90;;;21.50;63.80;;;;;;6257506;22;20073;-71
2021/06/15 01:18:47;;;;;;;2.70;0.80;;;21.50;63.80;;;;;;6288907;22;20015;-71
2021/06/15 01:21:13;;;;;;;3.10;0.88;;;21.50;63.80;;;;;;6289405;22;20030;-71
2021/06/15 01:23:51;;;;;;;2.30;0.65;;;21.50;63.70;;;;;;6289178;22;20042;-72
2021/06/15 01:26:38;;;;;;;2.33;0.70;;;21.50;63.70;;;;;;6289094;22;20015;-71
2021/06/15 01:29:12;;;;;;;3.30;1.00;;;21.50;63.70;;;;;;6289322;22;20035;-72
2021/06/15 01:31:45;;;;;;;1.90;0.50;;;21.50;63.60;;;;;;6289362;22;20312;-72
2021/06/15 01:34:27;;;;;;;3.08;0.55;;;21.50;63.70;;;;;;6289916;22;20027;-71
2021/06/15 01:37:06;;;;;;;3.33;0.98;;;21.50;63.70;;;;;;6289406;22;20015;-71
2021/06/15 01:40:04;;;;;;;3.80;0.82;;;21.50;63.80;;;;;;6288804;22;20297;-71
2021/06/15 01:42:35;;;;;;;2.88;0.77;;;21.50;63.60;;;;;;6277461;22;20020;-71
2021/06/15 01:45:05;;;;;;;4.18;0.70;;;21.50;63.80;;;;;;6280606;22;20026;-72
2021/06/15 01:47:31;;;;;;;1.48;0.50;;;21.50;63.80;;;;;;6281077;22;20015;-72
2021/06/15 01:50:00;;;;;;;2.08;0.63;;;21.50;63.80;;;;;;6291169;22;20016;-71
2021/06/15 01:52:37;;;;;;;2.63;0.68;;;21.50;63.80;;;;;;6291620;22;20023;-72
2021/06/15 01:55:05;;;;;;;2.80;0.52;;;21.50;63.60;;;;;;6280762;22;20035;-71
2021/06/15 01:57:32;;;;;;;4.53;0.75;;;21.50;63.70;;;;;;6264407;22;20015;-71
2021/06/15 02:00:07;;;;;;;3.33;0.52;;;21.50;63.70;;;;;;6291131;22;20020;-71
2021/06/15 02:02:34;;;;;;;2.83;0.50;;;21.50;63.60;;;;;;6280935;22;20016;-72
2021/06/15 02:05:03;;;;;;;2.92;0.82;;;21.50;63.60;;;;;;6291202;22;20301;-71
2021/06/15 02:07:32;;;;;;;4.53;1.10;;;21.40;63.50;;;;;;6280984;22;20197;-72
2021/06/15 02:10:19;;;;;;;3.28;0.80;;;21.40;63.50;;;;;;6291627;22;20016;-72
2021/06/15 02:12:50;;;;;;;3.90;0.93;;;21.40;63.40;;;;;;6280578;22;20016;-72
2021/06/15 02:15:35;;;;;;;2.92;0.90;;;21.40;63.50;;;;;;6280896;22;20099;-72
2021/06/15 02:18:02;;;;;;;4.82;1.23;;;21.40;63.50;;;;;;6291269;22;20016;-71
2021/06/15 02:20:37;;;;;;;2.38;0.75;;;21.40;63.50;;;;;;6280481;22;20077;-71
2021/06/15 02:23:04;;;;;;;5.68;0.73;;;21.40;63.50;;;;;;6291182;22;20012;-71
2021/06/15 02:26:08;;;;;;;3.25;0.88;;;21.40;63.50;;;;;;6258268;22;20024;-71
2021/06/15 02:28:54;;;;;;;2.50;0.70;;;21.40;63.40;;;;;;6237088;22;20423;-71
2021/06/15 02:31:36;;;;;;;3.42;0.80;;;21.40;63.50;;;;;;6290384;22;20035;-71
2021/06/15 02:34:06;;;;;;;2.20;0.65;;;21.40;63.40;;;;;;6290280;22;20015;-72
2021/06/15 02:36:37;;;;;;;2.28;0.60;;;21.40;63.40;;;;;;6290626;22;20015;-71
2021/06/15 02:39:19;;;;;;;2.58;0.55;;;21.40;63.40;;;;;;6291010;22;20011;-71
2021/06/15 02:41:45;;;;;;;3.00;0.60;;;21.40;63.30;;;;;;6290333;22;20321;-72
2021/06/15 02:44:18;;;;;;;1.45;0.60;;;21.30;63.40;;;;;;6291564;22;20016;-71
2021/06/15 02:46:47;;;;;;;3.58;0.80;;;21.30;63.40;;;;;;6291548;22;20039;-71
2021/06/15 02:49:18;;;;;;;6.25;0.90;;;21.30;63.40;;;;;;6290410;22;20074;-72
2021/06/15 02:51:58;;;;;;;3.92;1.52;;;21.30;63.40;;;;;;6291250;22;20043;-71
2021/06/15 02:54:30;;;;;;;3.47;0.80;;;21.30;63.40;;;;;;6290907;22;20039;-70
2021/06/15 02:56:57;;;;;;;3.20;0.57;;;21.30;63.30;;;;;;6253523;22;20410;-71
2021/06/15 02:59:23;;;;;;;2.92;0.75;;;21.30;63.30;;;;;;6281497;22;20016;-71
2021/06/15 03:01:51;;;;;;;5.40;0.90;;;21.30;63.40;;;;;;6289185;22;20423;-71
2021/06/15 03:04:18;;;;;;;3.10;0.60;;;21.30;63.40;;;;;;6279577;22;20095;-72
2021/06/15 03:06:45;;;;;;;4.70;0.60;;;21.30;63.40;;;;;;6290378;22;20078;-71
2021/06/15 03:09:12;;;;;;;3.33;0.60;;;21.30;63.40;;;;;;6290668;22;20012;-71
2021/06/15 03:11:59;;;;;;;2.90;0.77;;;21.30;63.30;;;;;;6279980;22;20054;-71
2021/06/15 03:14:29;;;;;;;4.22;0.70;;;21.30;63.30;;;;;;6290307;22;20020;-71
2021/06/15 03:16:59;;;;;;;2.25;0.75;;;21.20;63.30;;;;;;6290353;22;20023;-71
2021/06/15 03:20:00;;;;;;;1.70;0.70;;;21.20;63.30;;;;;;6290162;22;20320;-71
2021/06/15 03:22:54;;;;;;;3.60;0.85;;;21.20;63.10;;;;;;6238895;22;20032;-71
2021/06/15 03:25:29;;;;;;;5.60;0.70;;;21.20;63.20;;;;;;6260163;22;20026;-71
2021/06/15 03:27:59;;;;;;;2.17;0.70;;;21.20;63.20;;;;;;6279929;22;20047;-71
2021/06/15 03:30:47;;;;;;;3.35;1.00;;;21.20;63.30;;;;;;6258109;22;20367;-71
2021/06/15 03:33:28;;;;;;;3.50;0.80;;;21.20;63.30;;;;;;6279465;22;20034;-70
2021/06/15 03:35:58;;;;;;;3.42;0.77;;;21.20;63.30;;;;;;6289972;22;20020;-71
2021/06/15 03:38:29;;;;;;;3.45;0.52;;;21.20;63.20;;;;;;6289925;22;20446;-72
2021/06/15 03:40:57;;;;;;;2.55;0.82;;;21.20;63.30;;;;;;6290424;22;20074;-71
2021/06/15 03:43:26;;;;;;;3.60;0.88;;;21.20;63.30;;;;;;6290056;22;20018;-71
2021/06/15 03:45:57;;;;;;;3.78;0.70;;;21.20;63.20;;;;;;6290385;22;20095;-71
2021/06/15 03:48:24;;;;;;;3.58;1.05;;;21.20;63.30;;;;;;6290142;22;20015;-72
2021/06/15 03:50:55;;;;;;;1.92;0.60;;;21.20;63.30;;;;;;6290014;22;20018;-71
2021/06/15 03:53:28;;;;;;;2.22;0.60;;;21.20;63.20;;;;;;6289918;22;20011;-71
2021/06/15 03:55:55;;;;;;;3.50;0.90;;;21.20;63.10;;;;;;6289878;22;20012;-71
2021/06/15 03:58:22;;;;;;;6.30;1.33;;;21.10;62.90;;;;;;6289789;22;20294;-73
2021/06/15 04:00:50;;;;;;;4.45;1.17;;;21.10;62.10;;;;;;6289968;22;20420;-69
2021/06/15 04:03:17;;;;;;;6.30;1.35;;;21.00;62.30;;;;;;6290014;22;20074;-68
2021/06/15 04:05:44;;;;;;;6.65;1.10;;;20.90;61.50;;;;;;6290136;22;20023;-68
2021/06/15 04:08:14;;;;;;;7.00;1.27;;;20.90;61.50;;;;;;6290263;22;20416;-70
2021/06/15 04:10:44;;;;;;;10.50;1.65;;;20.80;61.50;;;;;;6289716;22;20480;-70
2021/06/15 04:13:11;;;;;;;8.63;1.80;;;20.70;61.50;;;;;;6283445;22;20086;-73
2021/06/15 04:15:37;;;;;;;4.90;1.27;;;20.60;61.10;;;;;;6289281;22;20057;-71
2021/06/15 04:18:06;;;;;;;4.95;1.40;;;20.60;61.00;;;;;;6280279;22;20027;-71
2021/06/15 04:20:37;;;;;;;8.18;1.40;;;20.50;61.00;;;;;;6279730;22;20065;-72
2021/06/15 04:23:08;;;;;;;9.00;1.60;;;20.50;61.30;;;;;;6280320;22;20054;-72
2021/06/15 04:25:40;;;;;;;6.47;1.48;;;20.40;61.40;;;;;;6289945;22;20030;-72
2021/06/15 04:28:07;;;;;;;7.07;1.17;;;20.40;61.80;;;;;;6289173;22;20368;-73
2021/06/15 04:30:49;;;;;;;4.93;1.50;;;20.40;61.80;;;;;;6279191;22;20020;-73
2021/06/15 04:33:17;;;;;;;7.05;1.35;;;20.30;61.70;;;;;;6289172;22;20035;-73
2021/06/15 04:35:47;;;;;;;7.25;1.88;;;20.30;61.60;;;;;;6289503;22;20023;-76
2021/06/15 04:38:46;;;;;;;8.65;1.80;;;20.30;61.60;;;;;;6256830;22;20429;-75
2021/06/15 04:41:16;;;;;;;5.20;1.70;;;20.20;61.80;;;;;;6289426;22;20024;-76
2021/06/15 04:43:47;;;;;;;6.18;1.20;;;20.20;62.20;;;;;;6289608;22;20024;-75
2021/06/15 04:46:20;;;;;;;10.00;1.55;;;20.20;62.20;;;;;;6289420;22;20019;-75
2021/06/15 04:49:11;;;;;;;6.47;1.80;;;20.20;62.00;;;;;;6289518;22;20016;-77
2021/06/15 04:51:38;;;;;;;8.85;1.77;;;20.20;62.70;;;;;;6288897;22;20065;-76
2021/06/15 04:54:04;;;;;;;6.38;1.50;;;20.20;62.40;;;;;;6289010;22;20305;-75
2021/06/15 04:56:30;;;;;;;8.07;1.63;;;20.10;62.40;;;;;;6289996;22;20016;-76
2021/06/15 04:59:02;;;;;;;11.30;2.47;;;20.20;62.30;;;;;;6290026;22;20496;-75
2021/06/15 05:01:28;;;;;;;6.45;1.55;;;20.10;62.10;;;;;;6288777;22;20417;-76
2021/06/15 05:03:58;;;;;;;9.02;1.65;;;20.10;62.10;;;;;;6289077;22;20138;-75
2021/06/15 05:06:40;;;;;;;7.53;1.65;;;20.20;62.10;;;;;;6289295;22;20011;-76
2021/06/15 05:09:08;;;;;;;8.18;1.75;;;20.10;61.90;;;;;;6289875;22;20061;-75
2021/06/15 05:11:36;;;;;;;9.23;1.50;;;20.10;62.00;;;;;;6289289;22;20413;-75
2021/06/15 05:14:25;;;;;;;15.60;1.85;;;20.10;62.00;;;;;;6256448;22;20097;-75
2021/06/15 05:16:52;;;;;;;8.98;1.40;;;20.10;62.10;;;;;;6289799;22;20303;-75
2021/06/15 05:19:18;;;;;;;12.30;1.83;;;20.10;62.00;;;;;;6279047;22;20015;-74
2021/06/15 05:22:05;;;;;;;9.40;1.75;;;20.10;62.00;;;;;;6289538;22;20417;-73
2021/06/15 05:24:46;;;;;;;9.50;1.70;;;20.10;62.10;;;;;;6288786;22;20047;-73
2021/06/15 05:27:13;;;;;;;8.00;1.80;;;20.10;61.90;;;;;;6288792;22;20106;-72
2021/06/15 05:29:39;;;;;;;11.10;1.88;;;20.10;61.80;;;;;;6288659;22;20289;-75
2021/06/15 05:32:07;;;;;;;7.00;1.80;;;20.10;61.70;;;;;;6289156;22;20019;-74
2021/06/15 05:34:35;;;;;;;11.68;2.10;;;20.10;61.70;;;;;;6289089;22;20023;-74
2021/06/15 05:37:02;;;;;;;10.98;2.08;;;20.10;61.60;;;;;;6289069;22;20023;-74
2021/06/15 05:39:29;;;;;;;12.20;1.67;;;20.10;61.80;;;;;;6288959;22;20023;-75
2021/06/15 05:41:55;;;;;;;9.68;1.60;;;20.10;62.00;;;;;;6289617;22;20036;-74
2021/06/15 05:44:21;;;;;;;8.10;1.80;;;20.10;62.00;;;;;;6277606;22;20412;-74
2021/06/15 05:46:47;;;;;;;8.50;1.70;;;20.10;62.00;;;;;;6287650;22;20091;-73
2021/06/15 05:49:13;;;;;;;16.40;1.95;;;20.10;61.90;;;;;;6288677;22;20352;-72
2021/06/15 05:51:39;;;;;;;12.25;2.35;;;20.20;61.90;;;;;;6288332;22;20050;-73
2021/06/15 05:54:07;;;;;;;10.43;1.60;;;20.20;62.00;;;;;;6289360;22;20026;-74
2021/06/15 05:56:33;;;;;;;10.93;1.88;;;20.20;61.90;;;;;;6278769;22;20031;-75
2021/06/15 05:58:59;;;;;;;11.25;1.63;;;20.20;61.80;;;;;;6289005;22;20347;-73
2021/06/15 06:01:26;;;;;;;11.10;2.25;;;20.20;61.50;;;;;;6278362;22;20031;-71
2021/06/15 06:04:03;;;;;;;13.25;1.80;;;20.20;61.30;;;;;;6288689;22;20077;-72
2021/06/15 06:09:13;;;;;;;10.65;1.90;;;20.10;60.20;;;;;;6288689;22;20015;-75
2021/06/15 06:11:41;;;;;;;9.50;1.63;;;20.10;60.50;;;;;;6288291;22;20020;-78
2021/06/15 06:14:06;;;;;;;8.38;1.60;;;20.10;60.20;;;;;;6288882;22;20082;-74
2021/06/15 06:16:33;;;;;;;7.35;1.85;;;20.10;59.80;;;;;;6288706;22;20035;-75
2021/06/15 06:19:00;;;;;;;8.38;1.88;;;20.00;59.60;;;;;;6288510;22;20012;-76
2021/06/15 06:21:34;;;;;;;6.65;1.20;;;20.00;59.60;;;;;;6288625;22;20011;-73
2021/06/15 06:24:02;;;;;;;6.35;1.58;;;20.00;59.40;;;;;;6288366;22;20425;-72
2021/06/15 06:26:29;;;;;;;7.20;1.88;;;20.00;59.40;;;;;;6289192;22;20015;-74
2021/06/15 06:28:54;;;;;;;6.55;1.38;;;19.90;59.10;;;;;;6288830;22;20063;-73
2021/06/15 06:31:20;;;;;;;9.57;1.50;;;19.90;59.30;;;;;;6280001;22;20020;-73
2021/06/15 06:33:46;;;;;;;7.80;1.65;;;20.00;58.90;;;;;;6290271;22;20011;-73
2021/06/15 06:36:13;;;;;;;6.95;1.42;;;20.00;58.80;;;;;;6290505;22;20086;-75
2021/06/15 06:38:38;;;;;;;6.38;1.40;;;20.00;58.70;;;;;;6290128;22;20282;-73
2021/06/15 06:41:04;;;;;;;5.63;1.20;;;20.00;58.50;;;;;;6290519;22;20102;-74
2021/06/15 06:43:31;;;;;;;5.35;1.40;;;20.00;58.20;;;;;;6280250;22;20474;-73
2021/06/15 06:45:56;;;;;;;6.40;1.23;;;20.00;58.10;;;;;;6290303;22;20018;-77
2021/06/15 06:48:23;;;;;;;6.15;1.25;;;20.00;58.30;;;;;;6279946;22;20091;-74
2021/06/15 06:50:49;;;;;;;7.28;1.58;;;20.00;57.40;;;;;;6280224;22;20031;-74
2021/06/15 06:53:15;;;;;;;6.65;1.13;;;20.00;57.20;;;;;;6289732;22;20016;-72
2021/06/15 06:55:40;;;;;;;7.30;1.48;;;20.00;57.40;;;;;;6290612;22;20281;-74
2021/06/15 06:58:06;;;;;;;10.35;1.67;;;20.00;57.00;;;;;;6290222;22;20012;-73
2021/06/15 07:00:33;;;;;;;8.18;1.80;;;20.00;56.40;;;;;;6263252;22;20019;-73
2021/06/15 07:03:00;;;;;;;6.50;1.30;;;20.10;56.60;;;;;;6279440;22;20039;-73
2021/06/15 07:05:26;;;;;;;9.02;1.27;;;20.10;57.10;;;;;;6280380;22;20019;-74
2021/06/15 07:07:52;;;;;;;3.53;1.23;;;20.00;57.20;;;;;;6290421;22;20016;-73
2021/06/15 07:10:21;;;;;;;10.85;1.52;;;20.10;56.90;;;;;;6289991;22;20038;-72
2021/06/15 07:12:48;;;;;;;13.60;2.10;;;20.10;57.30;;;;;;6258628;22;20091;-72
2021/06/15 07:15:15;;;;;;;6.47;1.23;;;20.20;56.60;;;;;;6289722;22;20016;-77
2021/06/15 07:17:41;;;;;;;7.72;1.90;;;20.10;55.70;;;;;;6290022;22;20018;-73
2021/06/15 07:20:09;;;;;;;5.85;1.42;;;20.00;55.60;;;;;;6289574;22;20019;-74
2021/06/15 07:22:35;;;;;;;6.97;1.38;;;20.00;55.60;;;;;;6289785;22;20329;-75
2021/06/15 07:25:02;;;;;;;7.18;1.40;;;19.90;55.70;;;;;;6279452;22;20058;-71
2021/06/15 07:27:49;;;;;;;7.07;1.63;;;19.90;56.20;;;;;;6257232;22;20300;-74
2021/06/15 07:30:18;;;;;;;5.40;1.58;;;19.90;56.60;;;;;;6289343;22;20015;-72
2021/06/15 07:33:04;;;;;;;5.82;1.35;;;19.90;56.30;;;;;;6257557;22;20016;-72
2021/06/15 07:35:50;;;;;;;7.50;1.20;;;19.90;55.80;;;;;;6257547;22;20016;-72
2021/06/15 07:38:36;;;;;;;8.25;1.30;;;19.90;55.50;;;;;;6257550;22;20444;-74
2021/06/15 07:41:02;;;;;;;5.95;1.50;;;19.90;55.70;;;;;;6290237;22;20099;-72
2021/06/15 07:43:29;;;;;;;5.57;1.20;;;19.90;55.50;;;;;;6290029;22;20074;-71
2021/06/15 07:46:15;;;;;;;4.88;1.52;;;19.90;56.00;;;;;;6257136;22;20020;-74
2021/06/15 07:49:02;;;;;;;5.43;1.08;;;19.90;56.60;;;;;;6257212;22;20412;-72
2021/06/15 07:51:37;;;;;;;7.30;1.70;;;19.90;56.60;;;;;;6289526;22;20090;-71
2021/06/15 07:54:23;;;;;;;6.20;1.50;;;20.00;56.10;;;;;;6257157;22;20026;-72
2021/06/15 07:57:09;;;;;;;4.50;0.90;;;20.00;56.10;;;;;;6257408;22;20030;-73
2021/06/15 07:59:55;;;;;;;6.97;1.48;;;19.90;56.60;;;;;;6257216;22;20095;-72
2021/06/15 08:02:42;;;;;;;4.00;1.13;;;20.00;57.50;;;;;;6257125;22;20020;-72
2021/06/15 08:05:28;;;;;;;5.40;1.10;;;20.00;58.10;;;;;;6257100;22;20030;-72
2021/06/15 08:07:54;;;;;;;6.43;1.42;;;20.10;58.10;;;;;;6289405;22;20012;-71
2021/06/15 08:10:40;;;;;;;5.55;1.50;;;20.10;58.00;;;;;;6256941;22;20031;-73
2021/06/15 08:13:06;;;;;;;8.13;1.27;;;20.20;58.20;;;;;;6279579;22;20306;-72
2021/06/15 08:15:32;;;;;;;7.70;1.58;;;20.20;58.10;;;;;;6290266;22;20086;-71
2021/06/15 08:18:13;;;;;;;5.25;0.98;;;20.20;58.30;;;;;;6289610;22;20086;-73
2021/06/15 08:20:41;;;;;;;7.80;1.40;;;20.30;57.80;;;;;;6289584;22;20082;-71
2021/06/15 08:23:07;;;;;;;6.25;1.10;;;20.30;57.10;;;;;;6279004;22;20087;-72
2021/06/15 08:25:53;;;;;;;6.30;1.40;;;20.20;57.10;;;;;;6256970;22;20016;-71
2021/06/15 08:28:21;;;;;;;4.20;1.08;;;20.20;57.50;;;;;;6289259;22;20483;-70
2021/06/15 08:31:07;;;;;;;7.30;0.90;;;20.20;57.50;;;;;;6256796;22;20016;-71
2021/06/15 08:33:33;;;;;;;6.32;1.23;;;20.20;57.70;;;;;;6288918;22;20086;-71
2021/06/15 08:35:59;;;;;;;12.45;2.25;;;20.30;57.60;;;;;;6288975;22;20087;-71
2021/06/15 08:38:45;;;;;;;7.55;1.48;;;20.30;58.30;;;;;;6256360;22;20020;-71
2021/06/15 08:41:12;;;;;;;5.82;1.10;;;20.30;58.30;;;;;;6278790;22;20024;-71
2021/06/15 08:43:38;;;;;;;7.00;1.63;;;20.30;58.20;;;;;;6288983;22;20011;-70
2021/06/15 08:46:04;;;;;;;11.88;1.83;;;20.40;58.40;;;;;;6289193;22;20012;-72
2021/06/15 08:48:34;;;;;;;4.07;1.25;;;20.40;58.50;;;;;;6288751;22;20475;-71
2021/06/15 08:51:01;;;;;;;7.40;1.60;;;20.40;58.50;;;;;;6289418;22;20012;-71
2021/06/15 08:53:33;;;;;;;7.93;1.58;;;20.40;58.60;;;;;;6288278;22;20016;-71
2021/06/15 08:56:28;;;;;;;7.13;1.27;;;20.40;58.70;;;;;;6289107;22;20066;-70
2021/06/15 08:59:07;;;;;;;4.32;1.20;;;20.50;58.80;;;;;;6289178;22;20081;-70
2021/06/15 09:01:33;;;;;;;6.85;1.27;;;20.50;58.70;;;;;;6289543;22;20021;-71
2021/06/15 09:03:59;;;;;;;4.72;1.05;;;20.50;58.80;;;;;;6278637;22;20235;-71
2021/06/15 09:06:24;;;;;;;5.80;1.13;;;20.50;58.50;;;;;;6289026;22;20069;-71
2021/06/15 09:08:55;;;;;;;6.05;1.20;;;20.60;58.60;;;;;;6289171;22;20396;-70
2021/06/15 09:11:22;;;;;;;5.38;1.25;;;20.60;58.40;;;;;;6289526;22;20090;-71
2021/06/15 09:13:49;;;;;;;5.20;1.13;;;20.60;58.80;;;;;;6280622;22;20332;-71
2021/06/15 09:16:36;;;;;;;6.40;1.10;;;20.60;58.80;;;;;;6288739;22;20436;-71
2021/06/15 09:19:15;;;;;;;9.43;1.30;;;20.60;58.70;;;;;;6288073;22;20089;-71
2021/06/15 09:21:44;;;;;;;6.70;1.35;;;20.60;59.20;;;;;;6288574;22;20011;-72
2021/06/15 09:24:24;;;;;;;5.82;1.20;;;20.70;58.30;;;;;;6288503;22;20016;-73
2021/06/15 09:27:05;;;;;;;5.38;1.52;;;20.80;57.80;;;;;;6288996;22;20092;-73
2021/06/15 09:29:51;;;;;;;9.70;1.60;;;20.80;57.80;;;;;;6288399;22;20020;-71
2021/06/15 09:32:26;;;;;;;7.93;1.77;;;20.90;57.80;;;;;;6288661;22;20039;-73
2021/06/15 09:35:01;;;;;;;6.13;1.00;;;20.90;57.30;;;;;;6288928;22;20022;-73
2021/06/15 09:37:38;;;;;;;8.07;1.27;;;20.80;57.60;;;;;;6288944;22;20015;-72
2021/06/15 09:40:15;;;;;;;8.10;1.48;;;20.80;57.90;;;;;;6288747;22;20085;-74
2021/06/15 09:43:09;;;;;;;7.43;1.45;;;20.80;58.00;;;;;;6288951;22;20016;-73
2021/06/15 09:45:36;;;;;;;;;;;20.80;57.10;;;;;;6262208;22;20016;-72
2021/06/15 09:48:36;;;;;;;6.72;1.02;;;20.70;57.40;;;;;;6288735;22;19961;-73
2021/06/15 09:51:16;;;;;;;5.60;1.25;;;20.70;56.90;;;;;;6289319;22;20016;-73
2021/06/15 09:53:45;;;;;;;6.05;1.45;;;20.60;56.40;;;;;;6288362;22;20015;-75
2021/06/15 09:56:14;;;;;;;5.93;1.70;;;20.50;57.10;;;;;;6277951;22;20016;-74
2021/06/15 09:58:42;;;;;;;9.55;1.85;;;20.50;56.60;;;;;;6288945;22;20026;-74
2021/06/15 10:01:08;;;;;;;7.03;1.88;;;20.40;56.30;;;;;;6288600;22;20321;-74
2021/06/15 10:03:34;;;;;;;8.65;1.33;;;20.50;56.40;;;;;;6288919;22;20089;-73
2021/06/15 10:06:00;;;;;;;4.72;1.13;;;20.40;55.50;;;;;;6290664;22;20413;-74
2021/06/15 10:08:45;;;;;;;5.32;1.42;;;20.40;55.50;;;;;;6290847;22;20046;-75
2021/06/15 10:11:12;;;;;;;6.43;1.45;;;20.30;55.90;;;;;;6290490;22;20478;-75
2021/06/15 10:13:39;;;;;;;4.90;1.25;;;20.30;56.10;;;;;;6281898;22;20309;-74
2021/06/15 10:16:05;;;;;;;4.95;1.23;;;20.40;56.60;;;;;;6290843;22;20086;-73
2021/06/15 10:18:33;;;;;;;6.65;1.30;;;20.30;56.70;;;;;;6290714;22;20011;-74
2021/06/15 10:20:59;;;;;;;4.60;1.20;;;20.30;56.90;;;;;;6289895;22;20483;-81
2021/06/15 10:23:25;;;;;;;5.43;1.30;;;20.40;57.50;;;;;;6263836;22;20470;-73
2021/06/15 10:25:51;;;;;;;6.10;1.38;;;20.50;57.60;;;;;;6280267;22;20110;-76
2021/06/15 10:28:17;;;;;;;22.55;2.50;;;20.50;57.70;;;;;;6290357;22;20047;-74
2021/06/15 10:30:44;;;;;;;6.30;1.15;;;20.50;57.80;;;;;;6290788;22;20015;-73
2021/06/15 10:33:16;;;;;;;6.47;1.23;;;20.70;58.00;;;;;;6290672;22;20027;-74
2021/06/15 10:35:47;;;;;;;5.03;0.80;;;20.70;57.00;;;;;;6290469;22;20015;-73
2021/06/15 10:38:33;;;;;;;5.25;1.25;;;20.80;55.80;;;;;;6291413;22;20462;-73
2021/06/15 10:41:02;;;;;;;4.97;1.25;;;20.80;56.10;;;;;;6253824;22;20030;-72
2021/06/15 10:43:30;;;;;;;7.90;1.23;;;20.80;55.50;;;;;;6280261;22;20412;-71
2021/06/15 10:46:11;;;;;;;9.00;1.73;;;20.80;56.30;;;;;;6290779;22;20304;-71
2021/06/15 10:48:43;;;;;;;15.02;1.48;;;20.80;56.70;;;;;;6290928;22;20011;-71
2021/06/15 10:51:36;;;;;;;8.05;1.63;;;20.80;57.00;;;;;;6290074;22;20015;-71
2021/06/15 10:54:25;;;;;;;7.30;1.60;;;20.80;57.10;;;;;;6290459;22;20031;-71
2021/06/15 10:57:16;;;;;;;10.07;1.55;;;20.90;57.20;;;;;;6280752;22;20077;-70
2021/06/15 11:00:05;;;;;;;5.70;1.17;;;20.90;57.50;;;;;;6290464;22;20023;-70
2021/06/15 11:02:32;;;;;;;4.15;1.10;;;20.90;57.50;;;;;;6290439;22;20012;-70
2021/06/15 11:05:36;;;;;;;5.75;1.33;;;20.90;57.70;;;;;;6289952;22;20395;-70
2021/06/15 11:08:17;;;;;;;5.95;1.27;;;20.90;58.00;;;;;;6290496;22;20015;-71
2021/06/15 11:10:50;;;;;;;5.15;1.05;;;20.90;58.10;;;;;;6280151;22;20019;-71
2021/06/15 11:13:16;;;;;;;6.60;1.00;;;21.00;58.30;;;;;;6283227;22;20046;-72
2021/06/15 11:16:01;;;;;;;6.22;1.05;;;21.00;58.30;;;;;;6289571;22;20019;-71
2021/06/15 11:18:27;;;;;;;5.65;1.30;;;21.00;58.50;;;;;;6290211;22;20016;-71
2021/06/15 11:20:54;;;;;;;3.97;1.02;;;21.00;58.40;;;;;;6281401;22;20294;-70
2021/06/15 11:23:26;;;;;;;2.55;0.77;;;21.00;58.40;;;;;;6290133;22;20454;-71
2021/06/15 11:26:01;;;;;;;3.83;1.02;;;21.00;58.30;;;;;;6290068;22;20016;-71
2021/06/15 11:28:57;;;;;;;4.13;1.17;;;21.10;58.60;;;;;;6290173;22;20305;-70
2021/06/15 11:31:28;;;;;;;4.18;1.00;;;21.00;58.50;;;;;;6277290;22;20023;-70
2021/06/15 11:34:14;;;;;;;6.65;1.08;;;21.10;59.30;;;;;;6290897;22;20043;-70
2021/06/15 11:36:55;;;;;;;5.75;1.20;;;21.10;58.50;;;;;;6289905;22;20436;-70
2021/06/15 11:39:30;;;;;;;5.22;1.40;;;21.10;58.60;;;;;;6290130;22;20299;-70
2021/06/15 11:42:19;;;;;;;10.02;1.45;;;21.10;58.50;;;;;;6289394;22;20043;-73
2021/06/15 11:44:56;;;;;;;9.70;2.10;;;21.10;58.30;;;;;;6290390;22;20012;-71
2021/06/15 11:47:36;;;;;;;5.25;0.88;;;21.10;58.60;;;;;;6290009;22;20035;-71
2021/06/15 11:50:16;;;;;;;6.97;1.25;;;21.10;59.00;;;;;;6290154;22;20016;-71
2021/06/15 11:52:55;;;;;;;8.15;5.68;;;21.10;57.80;;;;;;6289960;22;20437;-72
2021/06/15 11:55:36;;;;;;;7.43;2.65;;;21.10;56.90;;;;;;6289152;22;20081;-71
2021/06/15 11:58:12;;;;;;;11.55;5.57;;;21.00;56.90;;;;;;6277566;22;20436;-70
2021/06/15 12:00:43;;;;;;;5.53;3.63;;;21.00;57.40;;;;;;6289629;22;20367;-70
2021/06/15 12:03:21;;;;;;;11.10;5.20;;;21.00;57.70;;;;;;6289939;22;20011;-72
2021/06/15 12:05:49;;;;;;;9.07;3.58;;;21.10;57.70;;;;;;6289274;22;20019;-70
2021/06/15 12:08:15;;;;;;;9.93;3.30;;;21.20;57.80;;;;;;6263073;22;20071;-69
2021/06/15 12:10:43;;;;;;;7.75;2.22;;;21.30;57.70;;;;;;6289516;22;20065;-70
2021/06/15 12:13:21;;;;;;;8.23;2.38;;;21.30;57.00;;;;;;6283412;22;20090;-70
2021/06/15 12:15:52;;;;;;;4.20;1.67;;;21.30;56.70;;;;;;6290389;22;20012;-71
2021/06/15 12:18:21;;;;;;;6.15;1.35;;;21.30;56.60;;;;;;6289267;22;20025;-70
2021/06/15 12:20:53;;;;;;;9.02;2.30;;;21.20;56.60;;;;;;6290569;22;20034;-69
2021/06/15 12:23:24;;;;;;;7.03;1.90;;;21.20;56.80;;;;;;6289736;22;20023;-72
2021/06/15 12:25:51;;;;;;;9.05;2.50;;;21.20;56.80;;;;;;6290103;22;20030;-69
2021/06/15 12:28:22;;;;;;;8.13;2.50;;;21.20;56.90;;;;;;6289165;22;20015;-70
2021/06/15 12:31:04;;;;;;;8.27;3.05;;;21.20;57.40;;;;;;6289092;22;20022;-69
2021/06/15 12:33:30;;;;;;;10.15;2.20;;;21.20;57.20;;;;;;6289724;22;20026;-71
2021/06/15 12:36:07;;;;;;;4.38;1.17;;;21.20;57.20;;;;;;6288446;22;20354;-70
2021/06/15 12:38:33;;;;;;;9.35;1.85;;;21.20;56.90;;;;;;6289125;22;20022;-70
2021/06/15 12:41:01;;;;;;;7.18;2.10;;;21.10;57.00;;;;;;6289172;22;20201;-70
2021/06/15 12:43:29;;;;;;;8.75;1.95;;;21.10;57.20;;;;;;6287482;22;20012;-69
2021/06/15 12:46:28;;;;;;;15.82;2.38;;;21.20;57.20;;;;;;6288905;22;20432;-71
2021/06/15 12:49:04;;;;;;;5.03;1.77;;;21.20;57.60;;;;;;6196373;22;20031;-70
2021/06/15 12:51:41;;;;;;;7.72;1.83;;;21.20;57.60;;;;;;6288229;22;20011;-69
2021/06/15 12:54:25;;;;;;;10.73;1.80;;;21.20;58.10;;;;;;6289431;22;20073;-68
2021/06/15 12:57:02;;;;;;;10.00;2.15;;;21.30;57.80;;;;;;6287748;22;20359;-69
2021/06/15 12:59:32;;;;;;;4.68;1.40;;;21.30;57.80;;;;;;6289316;22;20012;-68
2021/06/15 13:01:59;;;;;;;9.65;1.70;;;21.30;58.00;;;;;;6278192;22;20301;-68
2021/06/15 13:04:27;;;;;;;7.70;2.03;;;21.30;58.20;;;;;;6289269;22;20015;-68
2021/06/15 13:06:55;;;;;;;4.93;1.20;;;21.30;58.10;;;;;;6289090;22;20439;-68
2021/06/15 13:09:25;;;;;;;13.30;1.98;;;21.30;57.90;;;;;;6289138;22;20069;-69
2021/06/15 13:12:00;;;;;;;7.93;1.98;;;21.30;59.00;;;;;;6287910;22;20479;-68
2021/06/15 13:14:29;;;;;;;3.72;1.00;;;21.40;59.10;;;;;;6288920;22;20079;-68
2021/06/15 13:17:12;;;;;;;5.63;1.20;;;21.40;59.30;;;;;;6289363;22;20080;-68